Time;durP1;ratioP1;P1;durP2;ratioP2;P2;SDS_P1;SDS_P2;PMS_P1;PMS_P2;Temp;Humidity;BMP_temperature;BMP_pressure;BME280_temperature;BME280_humidity;BME280_pressure;Samples;Min_cycle;Max_cycle;Signal;HPM_P1;HPM_P2
2023/10/29 00:01:39;;;;;;;0.68;0.00;;;12.60;99.90;;;;;;5052826;28;20097;-76
2023/10/29 00:04:05;;;;;;;3.15;0.10;;;12.60;99.90;;;;;;5053687;28;20017;-76
2023/10/29 00:06:31;;;;;;;0.43;0.00;;;12.60;99.90;;;;;;5056061;28;20029;-76
2023/10/29 00:08:56;;;;;;;1.60;0.00;;;12.60;99.90;;;;;;5055039;28;20148;-75
2023/10/29 00:11:22;;;;;;;0.75;0.00;;;12.70;99.90;;;;;;5056056;28;20083;-75
2023/10/29 00:13:47;;;;;;;2.28;0.10;;;12.70;99.90;;;;;;5056027;28;20075;-76
2023/10/29 00:16:13;;;;;;;3.70;0.15;;;12.70;99.90;;;;;;5055715;28;20021;-76
2023/10/29 00:18:40;;;;;;;0.73;0.00;;;12.70;99.90;;;;;;5054613;28;20060;-75
2023/10/29 00:21:05;;;;;;;0.40;0.00;;;12.70;99.90;;;;;;5055724;28;20404;-76
2023/10/29 00:23:31;;;;;;;0.10;0.00;;;12.60;99.90;;;;;;5056281;28;20106;-75
2023/10/29 00:25:57;;;;;;;2.13;0.30;;;12.70;99.90;;;;;;5056197;28;20021;-75
2023/10/29 00:28:23;;;;;;;0.25;0.00;;;12.70;99.90;;;;;;5054310;28;20056;-76
2023/10/29 00:30:49;;;;;;;1.20;0.00;;;12.70;99.90;;;;;;5054373;28;20404;-76
2023/10/29 00:33:14;;;;;;;0.30;0.00;;;12.70;99.90;;;;;;5055479;28;20075;-76
2023/10/29 00:35:40;;;;;;;0.10;0.00;;;12.70;99.90;;;;;;5055316;28;20154;-76
2023/10/29 00:38:05;;;;;;;2.30;0.00;;;12.70;99.90;;;;;;5055466;28;20057;-75
2023/10/29 00:40:31;;;;;;;4.93;0.00;;;12.80;99.90;;;;;;5056178;28;20029;-75
2023/10/29 00:43:00;;;;;;;0.55;0.00;;;12.70;99.90;;;;;;5053923;28;20377;-76
2023/10/29 00:45:25;;;;;;;0.57;0.00;;;12.70;99.90;;;;;;5055206;28;20530;-76
2023/10/29 00:47:51;;;;;;;0.82;0.00;;;12.80;99.90;;;;;;5054237;28;20025;-76
2023/10/29 00:50:17;;;;;;;2.60;0.38;;;12.80;99.90;;;;;;5053869;28;20036;-76
2023/10/29 00:52:43;;;;;;;1.75;0.00;;;12.70;99.90;;;;;;5053938;28;20033;-75
2023/10/29 00:55:09;;;;;;;1.50;0.00;;;12.80;99.90;;;;;;5053908;28;20434;-75
2023/10/29 00:57:37;;;;;;;0.88;0.00;;;12.80;99.90;;;;;;5055292;28;20101;-76
2023/10/29 01:00:03;;;;;;;0.20;0.03;;;12.80;99.90;;;;;;5055292;28;20055;-75
2023/10/29 01:02:31;;;;;;;0.15;0.00;;;12.80;99.90;;;;;;5055407;28;20028;-75
2023/10/29 01:04:57;;;;;;;0.82;0.03;;;12.80;99.90;;;;;;5053577;28;20017;-76
2023/10/29 01:07:23;;;;;;;2.85;0.05;;;14.20;99.90;;;;;;5054767;28;20032;-76
2023/10/29 01:09:50;;;;;;;1.95;0.25;;;12.90;99.90;;;;;;5055181;28;20024;-76
2023/10/29 01:12:19;;;;;;;0.28;0.00;;;12.90;99.90;;;;;;5055241;28;20365;-77
2023/10/29 01:14:45;;;;;;;0.88;0.00;;;12.90;99.90;;;;;;5053188;28;20128;-77
2023/10/29 01:17:11;;;;;;;0.38;0.00;;;12.90;99.90;;;;;;5053987;28;20060;-77
2023/10/29 01:19:37;;;;;;;0.43;0.00;;;13.00;99.90;;;;;;5053366;28;20017;-76
2023/10/29 01:22:03;;;;;;;0.73;0.28;;;13.00;99.90;;;;;;5054672;28;20100;-76
2023/10/29 01:24:28;;;;;;;0.47;0.10;;;12.90;99.90;;;;;;5055089;28;20400;-76
2023/10/29 01:26:54;;;;;;;0.55;0.00;;;13.00;99.90;;;;;;5054456;28;20017;-75
2023/10/29 01:29:20;;;;;;;0.20;0.00;;;13.10;99.90;;;;;;5054567;28;20087;-76
2023/10/29 01:31:49;;;;;;;1.83;0.10;;;13.00;99.90;;;;;;5054295;28;20388;-76
2023/10/29 01:34:15;;;;;;;2.92;0.38;;;13.10;99.90;;;;;;5054313;28;20029;-76
2023/10/29 01:36:40;;;;;;;1.45;0.00;;;13.10;99.90;;;;;;5054066;28;20391;-76
2023/10/29 01:39:06;;;;;;;2.22;0.25;;;13.00;99.90;;;;;;5054147;28;20029;-76
2023/10/29 01:41:32;;;;;;;0.30;0.10;;;13.00;99.90;;;;;;5054610;28;20035;-76
2023/10/29 01:43:58;;;;;;;1.95;0.00;;;13.00;99.90;;;;;;5054153;28;20422;-76
2023/10/29 01:46:23;;;;;;;4.50;0.00;;;12.90;99.90;;;;;;5054001;28;20029;-76
2023/10/29 01:48:49;;;;;;;0.55;0.00;;;13.00;99.90;;;;;;5054133;28;20052;-76
2023/10/29 01:51:15;;;;;;;0.13;0.03;;;13.00;99.90;;;;;;5052855;28;20184;-76
2023/10/29 01:53:40;;;;;;;2.15;0.00;;;13.00;99.90;;;;;;5053964;28;20029;-76
2023/10/29 01:56:07;;;;;;;0.08;0.03;;;13.00;99.90;;;;;;5054284;28;20037;-76
2023/10/29 01:58:33;;;;;;;1.65;0.00;;;13.10;99.90;;;;;;5054427;28;20060;-76
2023/10/29 02:00:59;;;;;;;0.30;0.00;;;13.00;99.90;;;;;;5053821;28;20025;-76
2023/10/29 02:03:26;;;;;;;1.08;0.00;;;13.40;99.90;;;;;;5053804;28;20025;-76
2023/10/29 02:05:52;;;;;;;6.63;0.10;;;13.10;99.90;;;;;;5053670;28;20061;-76
2023/10/29 02:08:18;;;;;;;3.30;0.10;;;13.10;99.90;;;;;;5053792;28;20504;-76
2023/10/29 02:10:43;;;;;;;0.88;0.00;;;13.20;99.90;;;;;;5053682;28;20052;-76
2023/10/29 02:13:09;;;;;;;0.80;0.10;;;13.10;99.90;;;;;;5053718;28;20032;-76
2023/10/29 02:15:34;;;;;;;1.17;0.00;;;13.60;99.90;;;;;;5052217;28;20025;-76
2023/10/29 02:18:00;;;;;;;1.45;0.00;;;13.10;99.90;;;;;;5053615;28;20088;-76
2023/10/29 02:20:26;;;;;;;0.75;0.52;;;13.20;99.90;;;;;;5053744;28;20013;-76
2023/10/29 02:22:51;;;;;;;0.57;0.38;;;13.20;99.90;;;;;;5053742;28;20086;-75
2023/10/29 02:25:17;;;;;;;0.88;0.20;;;13.30;99.90;;;;;;5053943;28;20025;-77
2023/10/29 02:27:42;;;;;;;0.20;0.00;;;13.30;99.90;;;;;;5051873;28;20509;-76
2023/10/29 02:30:08;;;;;;;1.80;0.00;;;13.30;99.90;;;;;;5053404;28;20025;-76
2023/10/29 02:32:34;;;;;;;0.68;0.20;;;13.30;99.90;;;;;;5053876;28;20068;-76
2023/10/29 02:34:59;;;;;;;0.43;0.00;;;13.30;99.90;;;;;;5053299;28;20477;-76
2023/10/29 02:37:25;;;;;;;0.00;0.00;;;13.40;99.90;;;;;;5053228;28;20017;-76
2023/10/29 02:39:50;;;;;;;0.75;0.00;;;13.40;99.90;;;;;;5053280;28;20100;-76
2023/10/29 02:42:17;;;;;;;0.47;0.00;;;13.40;99.90;;;;;;5053705;28;20380;-76
2023/10/29 02:44:43;;;;;;;1.20;0.00;;;13.40;99.90;;;;;;5051930;28;20029;-77
2023/10/29 02:47:08;;;;;;;0.22;0.00;;;13.40;99.90;;;;;;5053173;28;20025;-78
2023/10/29 02:49:34;;;;;;;1.02;0.00;;;13.50;99.90;;;;;;5053275;28;20032;-77
2023/10/29 02:51:59;;;;;;;0.00;0.00;;;13.50;99.90;;;;;;5051895;28;20480;-76
2023/10/29 02:54:25;;;;;;;0.00;0.00;;;13.50;99.90;;;;;;5053779;28;20546;-77
2023/10/29 02:56:50;;;;;;;0.73;0.15;;;13.50;99.90;;;;;;5052014;28;20399;-77
2023/10/29 02:59:16;;;;;;;0.00;0.00;;;13.50;99.90;;;;;;5052459;28;20021;-76
2023/10/29 03:01:42;;;;;;;1.80;0.00;;;13.50;99.90;;;;;;5052285;28;20024;-76
2023/10/29 03:04:08;;;;;;;0.00;0.00;;;13.40;99.90;;;;;;5053057;28;20028;-76
2023/10/29 03:06:35;;;;;;;1.73;0.00;;;13.30;99.90;;;;;;5053218;28;20032;-77
2023/10/29 03:09:01;;;;;;;1.85;0.55;;;13.20;99.90;;;;;;5052024;28;20024;-76
2023/10/29 03:11:26;;;;;;;0.35;0.00;;;13.10;99.90;;;;;;5053026;28;20021;-76
2023/10/29 03:13:52;;;;;;;0.20;0.00;;;13.00;99.90;;;;;;5052954;28;20029;-76
2023/10/29 03:16:17;;;;;;;0.32;0.00;;;12.90;99.90;;;;;;5053080;28;20140;-76
2023/10/29 03:18:43;;;;;;;1.15;0.00;;;12.90;99.90;;;;;;5051678;28;20480;-77
2023/10/29 03:21:09;;;;;;;0.47;0.00;;;12.80;99.90;;;;;;5052943;28;20477;-76
2023/10/29 03:23:34;;;;;;;0.00;0.00;;;12.60;99.90;;;;;;5052806;28;20024;-76
2023/10/29 03:26:02;;;;;;;0.50;0.00;;;12.50;99.90;;;;;;5053051;28;20108;-76
2023/10/29 03:28:27;;;;;;;1.20;0.00;;;12.30;99.90;;;;;;5053029;28;20025;-76
2023/10/29 03:30:53;;;;;;;0.63;0.00;;;12.30;99.90;;;;;;5053281;28;20025;-76
2023/10/29 03:33:18;;;;;;;0.32;0.00;;;12.20;99.90;;;;;;5053192;28;20060;-76
2023/10/29 03:35:44;;;;;;;0.00;0.00;;;13.10;99.90;;;;;;5053189;28;20032;-76
2023/10/29 03:38:09;;;;;;;2.35;0.00;;;12.30;99.90;;;;;;5052904;28;20040;-76
2023/10/29 03:40:36;;;;;;;0.32;0.00;;;12.40;99.90;;;;;;5056520;28;20021;-76
2023/10/29 03:43:02;;;;;;;1.58;0.00;;;12.40;99.90;;;;;;5056539;28;20048;-76
2023/10/29 03:45:27;;;;;;;0.00;0.00;;;12.50;99.90;;;;;;5056986;28;20021;-76
2023/10/29 03:47:53;;;;;;;0.00;0.00;;;12.50;99.90;;;;;;5056525;28;20018;-76
2023/10/29 03:50:19;;;;;;;0.35;0.00;;;12.60;99.90;;;;;;5056372;28;20029;-76
2023/10/29 03:52:44;;;;;;;0.10;0.00;;;12.60;99.90;;;;;;5055051;28;20021;-76
2023/10/29 03:55:10;;;;;;;3.63;0.00;;;12.80;99.90;;;;;;5054926;28;20025;-76
2023/10/29 03:57:36;;;;;;;1.45;0.00;;;12.80;99.90;;;;;;5056299;28;20057;-76
2023/10/29 04:00:02;;;;;;;1.25;0.00;;;12.80;99.90;;;;;;5056511;28;20021;-76
2023/10/29 04:02:28;;;;;;;8.48;0.08;;;12.90;99.90;;;;;;5054974;28;20040;-76
2023/10/29 04:04:54;;;;;;;0.30;0.00;;;13.00;99.90;;;;;;5054874;28;20013;-76
2023/10/29 04:07:20;;;;;;;0.85;0.03;;;13.10;99.90;;;;;;5055860;28;20492;-76
2023/10/29 04:09:46;;;;;;;1.00;0.00;;;13.40;99.90;;;;;;5056715;28;20108;-76
2023/10/29 04:12:12;;;;;;;0.25;0.00;;;;;;;;;;5056284;28;20029;-76
2023/10/29 04:14:39;;;;;;;0.00;0.00;;;13.20;99.90;;;;;;5056544;28;20040;-76
2023/10/29 04:17:06;;;;;;;2.60;0.00;;;13.20;99.90;;;;;;5055756;28;20021;-76
2023/10/29 04:19:32;;;;;;;1.85;0.00;;;13.30;99.90;;;;;;5055885;28;20337;-76
2023/10/29 04:21:57;;;;;;;0.10;0.00;;;13.30;99.90;;;;;;5055693;28;20017;-75
2023/10/29 04:24:23;;;;;;;0.95;0.00;;;13.30;99.90;;;;;;5055857;28;20029;-76
2023/10/29 04:26:49;;;;;;;0.30;0.00;;;;;;;;;;5054470;28;20024;-76
2023/10/29 04:29:16;;;;;;;0.88;0.20;;;13.30;99.90;;;;;;5055807;28;20052;-76
2023/10/29 04:31:41;;;;;;;1.65;0.03;;;13.30;99.90;;;;;;5054505;28;20036;-76
2023/10/29 04:34:07;;;;;;;2.45;0.00;;;13.30;99.90;;;;;;5056158;28;20033;-76
2023/10/29 04:36:33;;;;;;;2.53;0.10;;;13.30;99.90;;;;;;5055345;28;20052;-76
2023/10/29 04:38:59;;;;;;;1.83;0.00;;;14.00;99.90;;;;;;5055431;28;20025;-77
2023/10/29 04:41:24;;;;;;;2.17;0.08;;;13.20;99.90;;;;;;5055465;28;20017;-76
2023/10/29 04:43:50;;;;;;;0.90;0.30;;;13.20;99.90;;;;;;5055362;28;20045;-75
2023/10/29 04:46:15;;;;;;;1.33;0.20;;;13.20;99.90;;;;;;5055583;28;20484;-77
2023/10/29 04:48:41;;;;;;;0.93;0.00;;;13.30;99.90;;;;;;5055607;28;20098;-76
2023/10/29 04:51:07;;;;;;;1.90;0.10;;;13.80;99.90;;;;;;5054406;28;20023;-76
2023/10/29 04:53:33;;;;;;;2.20;0.00;;;13.50;99.90;;;;;;5055456;28;20021;-76
2023/10/29 04:55:59;;;;;;;0.60;0.00;;;13.40;99.90;;;;;;5055155;28;20442;-76
2023/10/29 04:58:25;;;;;;;1.63;0.00;;;13.40;99.90;;;;;;5055095;28;20025;-76
2023/10/29 05:00:51;;;;;;;0.75;0.00;;;13.40;99.90;;;;;;5055296;28;20025;-76
2023/10/29 05:03:16;;;;;;;3.20;0.00;;;13.40;99.90;;;;;;5055083;28;20025;-76
2023/10/29 05:05:42;;;;;;;3.53;0.00;;;13.30;99.90;;;;;;5054839;28;20036;-76
2023/10/29 05:08:08;;;;;;;0.30;0.00;;;13.30;99.90;;;;;;5054869;28;20036;-76
2023/10/29 05:10:33;;;;;;;2.72;0.47;;;13.30;99.90;;;;;;5053693;28;20111;-76
2023/10/29 05:12:59;;;;;;;1.50;0.00;;;13.30;99.90;;;;;;5053625;28;20029;-76
2023/10/29 05:15:25;;;;;;;1.75;0.00;;;13.20;99.90;;;;;;5054629;28;20083;-76
2023/10/29 05:17:51;;;;;;;1.10;0.22;;;13.30;99.90;;;;;;5053431;28;20480;-76
2023/10/29 05:20:16;;;;;;;4.03;0.47;;;13.20;99.90;;;;;;5053334;28;20039;-76
2023/10/29 05:22:42;;;;;;;4.50;0.30;;;13.30;99.90;;;;;;5055213;28;20025;-76
2023/10/29 05:25:08;;;;;;;1.58;0.00;;;13.30;99.90;;;;;;5055532;28;20013;-76
2023/10/29 05:27:34;;;;;;;0.25;0.10;;;13.60;99.90;;;;;;5053588;28;20028;-76
2023/10/29 05:29:59;;;;;;;0.60;0.00;;;13.30;99.90;;;;;;5054641;28;20100;-76
2023/10/29 05:32:26;;;;;;;4.18;0.00;;;13.30;99.90;;;;;;5054537;28;20044;-76
2023/10/29 05:34:52;;;;;;;1.85;0.45;;;13.30;99.90;;;;;;5054606;28;20028;-76
2023/10/29 05:37:18;;;;;;;0.15;0.00;;;13.30;99.90;;;;;;5054287;28;20032;-76
2023/10/29 05:39:43;;;;;;;1.27;0.00;;;13.20;99.90;;;;;;5054453;28;20036;-76
2023/10/29 05:42:10;;;;;;;0.00;0.00;;;13.20;99.90;;;;;;5054512;28;20021;-76
2023/10/29 05:44:35;;;;;;;0.98;0.00;;;13.20;99.90;;;;;;5054527;28;20430;-76
2023/10/29 05:47:01;;;;;;;1.40;0.00;;;13.20;99.90;;;;;;5053217;28;20104;-76
2023/10/29 05:49:26;;;;;;;0.75;0.00;;;13.20;99.90;;;;;;5054718;28;20102;-76
2023/10/29 05:51:52;;;;;;;0.05;0.00;;;13.20;99.90;;;;;;5053059;28;20114;-76
2023/10/29 05:54:18;;;;;;;2.60;0.00;;;13.20;99.90;;;;;;5054891;28;20457;-76
2023/10/29 05:56:45;;;;;;;0.40;0.00;;;13.20;99.90;;;;;;5054336;28;20378;-75
2023/10/29 05:59:13;;;;;;;0.15;0.00;;;13.20;99.90;;;;;;5052875;28;20091;-75
2023/10/29 06:01:39;;;;;;;1.63;0.10;;;13.30;99.90;;;;;;5052368;28;20393;-76
2023/10/29 06:04:05;;;;;;;2.15;0.00;;;13.10;99.90;;;;;;5053093;28;20009;-76
2023/10/29 06:06:31;;;;;;;3.65;0.08;;;13.10;99.90;;;;;;5053907;28;20041;-75
2023/10/29 06:08:57;;;;;;;0.50;0.00;;;13.10;99.90;;;;;;5054667;28;20028;-75
2023/10/29 06:11:22;;;;;;;2.63;0.38;;;13.00;99.90;;;;;;5054018;28;20021;-76
2023/10/29 06:13:48;;;;;;;2.53;0.00;;;13.00;99.90;;;;;;5053953;28;20056;-76
2023/10/29 06:16:14;;;;;;;1.85;0.00;;;13.90;99.90;;;;;;5053876;28;20103;-76
2023/10/29 06:18:39;;;;;;;1.58;0.00;;;12.90;99.90;;;;;;5053823;28;20039;-75
2023/10/29 06:21:05;;;;;;;2.80;0.35;;;12.90;99.90;;;;;;5053672;28;20021;-75
2023/10/29 06:23:30;;;;;;;1.25;0.20;;;13.00;99.90;;;;;;5053905;28;20468;-75
2023/10/29 06:25:56;;;;;;;1.08;0.03;;;12.90;99.90;;;;;;5054013;28;20017;-76
2023/10/29 06:28:22;;;;;;;4.43;0.20;;;;;;;;;;5053766;28;20025;-75
2023/10/29 06:30:47;;;;;;;1.88;0.00;;;12.80;99.90;;;;;;5052485;28;20021;-76
2023/10/29 06:33:13;;;;;;;7.18;0.00;;;12.70;99.90;;;;;;5054051;28;20025;-76
2023/10/29 06:35:40;;;;;;;1.65;0.00;;;12.70;99.90;;;;;;5054100;28;20020;-76
2023/10/29 06:38:06;;;;;;;3.13;0.00;;;12.70;99.90;;;;;;5052478;28;20032;-75
2023/10/29 06:40:31;;;;;;;5.70;0.00;;;12.70;99.90;;;;;;5053788;28;20032;-76
2023/10/29 06:42:57;;;;;;;0.75;0.00;;;12.70;99.90;;;;;;5053738;28;20021;-76
2023/10/29 06:45:22;;;;;;;3.50;0.00;;;12.60;99.90;;;;;;5053465;28;20020;-76
2023/10/29 06:47:48;;;;;;;2.45;0.35;;;12.50;99.90;;;;;;5053708;28;20013;-76
2023/10/29 06:50:14;;;;;;;1.33;0.50;;;12.60;99.90;;;;;;5053543;28;20480;-76
2023/10/29 06:52:39;;;;;;;4.10;0.20;;;12.50;99.90;;;;;;5052269;28;20155;-76
2023/10/29 06:55:08;;;;;;;1.40;0.05;;;12.40;99.90;;;;;;5051833;28;20021;-76
2023/10/29 06:57:35;;;;;;;2.28;0.00;;;12.40;99.90;;;;;;5051717;28;20025;-76
2023/10/29 07:00:00;;;;;;;4.22;0.30;;;12.40;99.90;;;;;;5052291;28;20025;-75
2023/10/29 07:02:26;;;;;;;1.48;0.00;;;12.40;99.90;;;;;;5053420;28;20508;-75
2023/10/29 07:04:51;;;;;;;0.47;0.00;;;12.40;99.90;;;;;;5053716;28;20035;-76
2023/10/29 07:07:18;;;;;;;2.40;0.10;;;13.00;99.90;;;;;;5053100;28;20033;-76
2023/10/29 07:09:44;;;;;;;3.35;0.00;;;12.40;99.90;;;;;;5051999;28;20032;-76
2023/10/29 07:12:09;;;;;;;2.78;0.00;;;12.40;99.90;;;;;;5053112;28;20028;-76
2023/10/29 07:14:35;;;;;;;1.20;0.00;;;12.60;99.90;;;;;;5055492;28;20025;-76
2023/10/29 07:17:01;;;;;;;3.63;0.00;;;12.30;99.90;;;;;;5055709;28;20508;-76
2023/10/29 07:19:26;;;;;;;0.90;0.00;;;12.90;99.90;;;;;;5057061;28;20017;-76
2023/10/29 07:21:52;;;;;;;1.83;0.00;;;12.30;99.90;;;;;;5057192;28;20021;-76
2023/10/29 07:24:17;;;;;;;1.83;0.00;;;12.40;99.90;;;;;;5057011;28;20485;-75
2023/10/29 07:26:43;;;;;;;1.08;0.00;;;12.30;99.90;;;;;;5057317;28;20036;-76
2023/10/29 07:29:11;;;;;;;0.40;0.00;;;12.30;99.90;;;;;;5057031;28;20074;-76
2023/10/29 07:31:36;;;;;;;2.28;0.30;;;12.30;99.90;;;;;;5055879;28;20032;-76
2023/10/29 07:34:02;;;;;;;0.80;0.00;;;12.40;99.90;;;;;;5057251;28;20029;-76
2023/10/29 07:36:29;;;;;;;3.08;0.20;;;12.40;99.90;;;;;;5057595;28;20477;-76
2023/10/29 07:38:54;;;;;;;0.30;0.00;;;12.40;99.90;;;;;;5056996;28;20021;-76
2023/10/29 07:41:21;;;;;;;1.35;0.03;;;12.60;99.90;;;;;;5056090;28;20037;-77
2023/10/29 07:43:47;;;;;;;1.55;0.15;;;12.60;99.90;;;;;;5056677;28;20075;-77
2023/10/29 07:46:14;;;;;;;1.88;0.40;;;12.60;99.90;;;;;;5057149;28;20021;-77
2023/10/29 07:48:40;;;;;;;2.60;0.40;;;12.60;99.90;;;;;;5056508;28;20112;-77
2023/10/29 07:51:08;;;;;;;2.03;0.03;;;12.70;99.90;;;;;;5055289;28;20071;-77
2023/10/29 07:53:33;;;;;;;0.98;0.00;;;12.80;99.90;;;;;;5055124;28;20028;-77
2023/10/29 07:56:10;;;;;;;3.03;0.05;;;12.90;99.90;;;;;;5056277;28;20404;-77
2023/10/29 07:58:37;;;;;;;2.10;0.28;;;13.00;99.90;;;;;;5055107;28;20108;-77
2023/10/29 08:01:09;;;;;;;2.92;0.43;;;15.30;99.90;;;;;;5056463;28;20090;-77
2023/10/29 08:03:34;;;;;;;2.85;0.10;;;13.10;99.90;;;;;;5056196;28;20043;-77
2023/10/29 08:06:00;;;;;;;0.65;0.00;;;13.10;99.90;;;;;;5054323;28;20033;-77
2023/10/29 08:08:26;;;;;;;1.08;0.28;;;13.10;99.90;;;;;;5055251;28;20033;-77
2023/10/29 08:10:51;;;;;;;1.20;0.00;;;13.10;99.90;;;;;;5053656;28;20036;-77
2023/10/29 08:13:17;;;;;;;1.65;0.20;;;13.10;99.90;;;;;;5055375;28;20025;-77
2023/10/29 08:15:45;;;;;;;2.40;0.00;;;13.80;99.90;;;;;;5054491;28;20151;-77
2023/10/29 08:18:11;;;;;;;1.10;0.28;;;13.10;99.90;;;;;;5055403;28;20025;-77
2023/10/29 08:20:37;;;;;;;1.10;0.13;;;13.10;99.90;;;;;;5054672;28;20032;-77
2023/10/29 08:23:02;;;;;;;1.38;0.00;;;13.60;99.90;;;;;;5054868;28;20104;-77
2023/10/29 08:25:28;;;;;;;0.70;0.35;;;13.10;99.90;;;;;;5052876;28;20108;-77
2023/10/29 08:27:53;;;;;;;0.90;0.00;;;13.10;99.90;;;;;;5053276;28;20025;-77
2023/10/29 08:30:19;;;;;;;2.30;0.00;;;13.10;99.90;;;;;;5055118;28;20079;-77
2023/10/29 08:32:45;;;;;;;1.58;0.28;;;13.00;99.90;;;;;;5054586;28;20369;-77
2023/10/29 08:35:10;;;;;;;8.68;0.17;;;13.00;99.90;;;;;;5053067;28;20108;-77
2023/10/29 08:37:36;;;;;;;4.88;0.40;;;13.00;99.90;;;;;;5054360;28;20017;-77
2023/10/29 08:40:02;;;;;;;6.38;0.00;;;13.00;99.90;;;;;;5054459;28;20036;-77
2023/10/29 08:42:30;;;;;;;2.55;0.00;;;13.00;99.90;;;;;;5053472;28;20017;-76
2023/10/29 08:44:59;;;;;;;4.60;0.65;;;13.00;99.90;;;;;;5053371;28;20025;-77
2023/10/29 08:47:26;;;;;;;4.57;0.00;;;12.90;99.90;;;;;;5054503;28;20021;-77
2023/10/29 08:49:51;;;;;;;3.13;0.00;;;12.90;99.90;;;;;;5053217;28;20477;-77
2023/10/29 08:52:17;;;;;;;2.65;0.03;;;13.00;99.90;;;;;;5054462;28;20029;-77
2023/10/29 08:54:47;;;;;;;3.65;0.10;;;13.10;99.90;;;;;;5052955;28;20025;-77
2023/10/29 08:57:13;;;;;;;4.20;0.22;;;12.90;99.90;;;;;;5054150;28;20029;-77
2023/10/29 08:59:42;;;;;;;5.22;0.35;;;12.90;99.90;;;;;;5054671;28;20087;-77
2023/10/29 09:02:08;;;;;;;;;;;13.00;99.90;;;;;;5054669;28;20017;-77
2023/10/29 09:04:38;;;;;;;3.40;0.00;;;13.10;99.90;;;;;;5054037;28;19905;-77
2023/10/29 09:07:04;;;;;;;6.35;0.47;;;13.20;99.90;;;;;;5018153;28;1054594;-77
2023/10/29 09:09:33;;;;;;;9.82;0.32;;;13.30;99.90;;;;;;5053755;28;20435;-77
2023/10/29 09:11:58;;;;;;;;;;;13.40;99.90;;;;;;5055567;28;20021;-77
2023/10/29 09:14:24;;;;;;;2.38;0.00;;;13.60;99.90;;;;;;5054871;28;19912;-77
2023/10/29 09:16:50;;;;;;;2.58;0.20;;;13.70;99.90;;;;;;5054555;28;20473;-77
2023/10/29 09:19:16;;;;;;;3.75;0.00;;;13.80;99.90;;;;;;5053622;28;20108;-77
2023/10/29 09:21:41;;;;;;;2.38;0.00;;;13.80;99.90;;;;;;5055846;28;20025;-76
2023/10/29 09:24:07;;;;;;;0.65;0.00;;;13.70;99.90;;;;;;5054733;28;20021;-75
2023/10/29 09:26:33;;;;;;;3.05;0.00;;;13.70;99.90;;;;;;5053422;28;20156;-75
2023/10/29 09:29:02;;;;;;;6.38;0.05;;;13.70;99.90;;;;;;5053307;28;20017;-76
2023/10/29 09:31:28;;;;;;;;;;;13.60;99.90;;;;;;5054910;28;20029;-75
2023/10/29 09:33:53;;;;;;;4.90;0.00;;;13.70;99.90;;;;;;5054472;28;19905;-76
2023/10/29 09:36:19;;;;;;;6.35;0.38;;;15.20;99.90;;;;;;5052281;28;20550;-75
2023/10/29 09:38:45;;;;;;;6.05;0.20;;;13.90;99.90;;;;;;5054586;28;20078;-75
2023/10/29 09:41:11;;;;;;;3.65;0.10;;;13.60;99.90;;;;;;5053184;28;20013;-76
2023/10/29 09:43:43;;;;;;;5.85;0.00;;;13.60;99.90;;;;;;5055020;28;20024;-75
2023/10/29 09:46:10;;;;;;;6.65;0.10;;;13.50;99.90;;;;;;5054587;28;20104;-76
2023/10/29 09:48:37;;;;;;;3.90;0.10;;;13.60;99.90;;;;;;5053369;28;20028;-75
2023/10/29 09:51:05;;;;;;;4.90;0.22;;;13.60;99.90;;;;;;5054972;28;20398;-77
2023/10/29 09:53:33;;;;;;;4.95;0.10;;;13.70;99.90;;;;;;5054573;28;20481;-77
2023/10/29 09:55:59;;;;;;;8.73;0.85;;;13.70;99.90;;;;;;5054375;28;20029;-77
2023/10/29 09:58:26;;;;;;;6.22;0.38;;;13.70;99.90;;;;;;5055766;28;20096;-77
2023/10/29 10:00:52;;;;;;;1.95;0.00;;;13.70;99.90;;;;;;5055703;28;20017;-77
2023/10/29 10:03:18;;;;;;;3.10;0.63;;;13.60;99.90;;;;;;5054670;28;20522;-76
2023/10/29 10:05:46;;;;;;;2.80;0.32;;;13.60;99.90;;;;;;5054275;28;20504;-77
2023/10/29 10:08:12;;;;;;;6.35;0.55;;;13.60;99.90;;;;;;5056467;28;20435;-78
2023/10/29 10:10:44;;;;;;;1.70;0.00;;;13.70;99.90;;;;;;5057304;28;20033;-78
2023/10/29 10:13:10;;;;;;;6.50;0.65;;;13.80;99.90;;;;;;5056943;28;20033;-78
2023/10/29 10:15:39;;;;;;;5.72;0.22;;;13.80;99.90;;;;;;5055688;28;20389;-77
2023/10/29 10:18:05;;;;;;;3.30;0.00;;;13.80;99.90;;;;;;5056912;28;20025;-78
2023/10/29 10:20:35;;;;;;;1.70;0.10;;;13.90;99.90;;;;;;5058099;28;20032;-83
2023/10/29 10:23:02;;;;;;;4.68;0.55;;;13.90;99.90;;;;;;5054844;28;20009;-76
2023/10/29 10:25:28;;;;;;;4.88;0.00;;;13.90;99.90;;;;;;5055340;28;20021;-77
2023/10/29 10:27:56;;;;;;;5.43;0.28;;;13.90;99.90;;;;;;5055484;28;20021;-77
2023/10/29 10:30:26;;;;;;;4.50;0.45;;;15.30;99.90;;;;;;5057074;28;20013;-79
2023/10/29 10:32:51;;;;;;;8.00;0.90;;;14.40;99.90;;;;;;5055776;28;20021;-77
2023/10/29 10:35:17;;;;;;;8.95;0.28;;;14.30;99.90;;;;;;5055746;28;20017;-79
2023/10/29 10:37:53;;;;;;;3.20;0.30;;;14.50;99.90;;;;;;5055393;28;20092;-78
2023/10/29 10:40:24;;;;;;;2.92;0.10;;;14.40;99.90;;;;;;5054169;28;20055;-80
2023/10/29 10:42:56;;;;;;;4.03;0.28;;;14.80;99.90;;;;;;5055571;28;20093;-77
2023/10/29 10:45:26;;;;;;;3.45;0.43;;;14.90;99.90;;;;;;5055363;28;20025;-77
2023/10/29 10:48:00;;;;;;;4.00;0.28;;;14.90;99.90;;;;;;5053687;28;20017;-77
2023/10/29 10:50:27;;;;;;;2.30;0.10;;;14.90;99.90;;;;;;5055503;28;20104;-78
2023/10/29 10:52:54;;;;;;;3.88;0.00;;;14.90;99.90;;;;;;5054921;28;20032;-77
2023/10/29 10:55:22;;;;;;;8.65;0.10;;;14.80;99.90;;;;;;5054601;28;20104;-78
2023/10/29 10:57:51;;;;;;;4.60;0.20;;;14.90;99.90;;;;;;5057964;28;20021;-80
2023/10/29 11:00:19;;;;;;;7.40;0.13;;;14.80;99.90;;;;;;5058816;28;20021;-81
2023/10/29 11:02:46;;;;;;;4.03;0.05;;;14.80;99.90;;;;;;5055955;28;20020;-80
2023/10/29 11:05:17;;;;;;;6.90;0.00;;;14.70;99.90;;;;;;5056962;28;20021;-80
2023/10/29 11:07:44;;;;;;;5.28;0.50;;;14.60;99.90;;;;;;5055822;28;20036;-80
2023/10/29 11:10:13;;;;;;;7.97;0.45;;;14.60;99.90;;;;;;5056620;28;20021;-77
2023/10/29 11:12:40;;;;;;;7.18;0.43;;;14.60;99.90;;;;;;5055281;28;20450;-76
2023/10/29 11:15:15;;;;;;;0.20;0.00;;;14.50;99.90;;;;;;5052570;28;20523;-78
2023/10/29 11:17:58;;;;;;;3.88;0.10;;;14.50;99.90;;;;;;5053975;28;20073;-79
2023/10/29 11:20:45;;;;;;;7.50;0.10;;;14.50;99.90;;;;;;5055346;28;20028;-76
2023/10/29 11:23:16;;;;;;;3.97;1.02;;;14.50;99.90;;;;;;5055805;28;20451;-78
2023/10/29 11:25:42;;;;;;;5.40;0.55;;;14.50;99.90;;;;;;5056537;28;20381;-79
2023/10/29 11:28:32;;;;;;;5.65;0.20;;;14.40;99.90;;;;;;5056820;28;20032;-79
2023/10/29 11:31:14;;;;;;;4.70;0.00;;;14.40;99.90;;;;;;5055341;28;20029;-79
2023/10/29 11:33:56;;;;;;;5.35;0.50;;;14.40;99.90;;;;;;5056764;28;20389;-80
2023/10/29 11:36:32;;;;;;;8.50;0.52;;;14.30;99.90;;;;;;5056345;28;20033;-81
2023/10/29 11:39:16;;;;;;;8.32;0.65;;;14.30;99.90;;;;;;5056030;28;20464;-78
2023/10/29 11:41:49;;;;;;;4.88;0.20;;;14.30;99.90;;;;;;5056354;28;20028;-77
2023/10/29 11:44:25;;;;;;;6.93;0.93;;;14.20;99.90;;;;;;5053691;28;20021;-78
2023/10/29 11:47:01;;;;;;;8.75;0.28;;;14.30;99.90;;;;;;5055062;28;20389;-78
2023/10/29 11:49:28;;;;;;;4.53;0.30;;;14.40;99.90;;;;;;5053671;28;20096;-78
2023/10/29 11:52:01;;;;;;;8.75;1.00;;;14.40;99.90;;;;;;5056058;28;20461;-78
2023/10/29 11:54:28;;;;;;;6.68;0.10;;;14.40;99.90;;;;;;5056173;28;20028;-77
2023/10/29 11:56:57;;;;;;;3.60;0.10;;;14.80;99.90;;;;;;5054260;28;20028;-78
2023/10/29 11:59:23;;;;;;;7.85;0.13;;;14.40;99.90;;;;;;5055415;28;20404;-77
2023/10/29 12:01:49;;;;;;;6.53;0.30;;;14.40;99.90;;;;;;5057836;28;20017;-79
2023/10/29 12:04:14;;;;;;;10.88;1.67;;;14.40;99.90;;;;;;5062931;28;20029;-79
2023/10/29 12:06:49;;;;;;;3.90;0.20;;;14.40;99.90;;;;;;5059660;28;20064;-78
2023/10/29 12:09:21;;;;;;;3.10;0.45;;;14.60;99.90;;;;;;5062651;28;20053;-79
2023/10/29 12:11:49;;;;;;;8.82;0.45;;;14.70;99.90;;;;;;5058653;28;20055;-76
2023/10/29 12:14:15;;;;;;;6.65;0.57;;;14.90;99.90;;;;;;5057878;28;20021;-78
2023/10/29 12:16:41;;;;;;;4.72;0.10;;;15.00;99.90;;;;;;5057899;28;20089;-78
2023/10/29 12:19:07;;;;;;;5.20;0.13;;;14.90;99.90;;;;;;5057444;28;20032;-77
2023/10/29 12:21:33;;;;;;;9.60;0.55;;;14.80;99.90;;;;;;5057457;28;20389;-77
2023/10/29 12:24:01;;;;;;;3.17;0.50;;;14.80;99.90;;;;;;5056859;28;20009;-77
2023/10/29 12:26:27;;;;;;;4.97;0.22;;;14.60;99.90;;;;;;5056486;28;20108;-78
2023/10/29 12:28:53;;;;;;;6.93;0.10;;;15.10;99.90;;;;;;5057863;28;20029;-76
2023/10/29 12:31:24;;;;;;;5.05;0.43;;;15.30;99.90;;;;;;5057632;28;20032;-78
2023/10/29 12:34:00;;;;;;;3.28;0.00;;;14.20;99.90;;;;;;5063489;28;20167;-78
2023/10/29 12:36:27;;;;;;;5.32;0.10;;;14.10;99.90;;;;;;5060853;28;20017;-78
2023/10/29 12:38:53;;;;;;;4.80;0.10;;;14.10;99.90;;;;;;5059821;28;20396;-78
2023/10/29 12:41:23;;;;;;;9.25;0.45;;;14.20;99.90;;;;;;5060557;28;20435;-77
2023/10/29 12:43:52;;;;;;;5.63;0.63;;;14.20;99.90;;;;;;5061455;28;20047;-78
2023/10/29 12:46:18;;;;;;;;;;;14.30;99.90;;;;;;5058528;28;20079;-78